sensor_id;sensor_type;location;lat;lon;timestamp;temperature;humidity
11107;DHT22;5607;48.302;14.294;2023-01-16T00:01:56;4.90;99.90
11107;DHT22;5607;48.302;14.294;2023-01-16T00:04:43;4.90;99.90
11107;DHT22;5607;48.302;14.294;2023-01-16T00:07:29;4.90;99.90
11107;DHT22;5607;48.302;14.294;2023-01-16T00:10:15;4.80;99.90
11107;DHT22;5607;48.302;14.294;2023-01-16T00:13:02;4.80;99.90
11107;DHT22;5607;48.302;14.294;2023-01-16T00:15:51;4.80;99.90
11107;DHT22;5607;48.302;14.294;2023-01-16T00:18:37;4.80;99.90
11107;DHT22;5607;48.302;14.294;2023-01-16T00:21:23;4.80;93.10
11107;DHT22;5607;48.302;14.294;2023-01-16T00:24:13;4.80;96.50
11107;DHT22;5607;48.302;14.294;2023-01-16T00:26:59;4.80;92.80
11107;DHT22;5607;48.302;14.294;2023-01-16T00:29:45;4.90;99.80
11107;DHT22;5607;48.302;14.294;2023-01-16T00:32:32;4.80;99.90
11107;DHT22;5607;48.302;14.294;2023-01-16T00:35:18;4.90;99.90
11107;DHT22;5607;48.302;14.294;2023-01-16T00:38:04;4.90;94.00
11107;DHT22;5607;48.302;14.294;2023-01-16T00:40:50;4.90;87.10
11107;DHT22;5607;48.302;14.294;2023-01-16T00:43:37;4.80;93.90
11107;DHT22;5607;48.302;14.294;2023-01-16T00:46:23;4.90;99.90
11107;DHT22;5607;48.302;14.294;2023-01-16T00:49:09;4.90;99.90
11107;DHT22;5607;48.302;14.294;2023-01-16T00:51:55;4.90;99.90
11107;DHT22;5607;48.302;14.294;2023-01-16T00:54:42;4.80;95.20
11107;DHT22;5607;48.302;14.294;2023-01-16T00:57:28;4.80;99.90
11107;DHT22;5607;48.302;14.294;2023-01-16T01:00:14;4.90;99.40
11107;DHT22;5607;48.302;14.294;2023-01-16T01:03:02;4.90;99.90
11107;DHT22;5607;48.302;14.294;2023-01-16T01:05:49;5.00;99.90
11107;DHT22;5607;48.302;14.294;2023-01-16T01:08:35;5.00;99.90
11107;DHT22;5607;48.302;14.294;2023-01-16T01:11:21;4.90;73.30
11107;DHT22;5607;48.302;14.294;2023-01-16T01:14:08;4.90;59.00
11107;DHT22;5607;48.302;14.294;2023-01-16T01:16:54;4.80;36.40
11107;DHT22;5607;48.302;14.294;2023-01-16T01:19:40;4.80;23.30
11107;DHT22;5607;48.302;14.294;2023-01-16T01:22:26;4.70;23.00
11107;DHT22;5607;48.302;14.294;2023-01-16T01:25:13;4.60;26.40
11107;DHT22;5607;48.302;14.294;2023-01-16T01:27:59;4.50;41.30
11107;DHT22;5607;48.302;14.294;2023-01-16T01:30:45;4.50;51.10
11107;DHT22;5607;48.302;14.294;2023-01-16T01:33:31;4.50;55.10
11107;DHT22;5607;48.302;14.294;2023-01-16T01:36:18;4.50;66.40
11107;DHT22;5607;48.302;14.294;2023-01-16T01:39:04;4.60;75.70
11107;DHT22;5607;48.302;14.294;2023-01-16T01:41:50;4.70;83.80
11107;DHT22;5607;48.302;14.294;2023-01-16T01:44:44;4.80;77.20
11107;DHT22;5607;48.302;14.294;2023-01-16T01:47:32;4.80;52.30
11107;DHT22;5607;48.302;14.294;2023-01-16T01:50:27;4.80;34.60
11107;DHT22;5607;48.302;14.294;2023-01-16T01:53:18;4.80;35.80
11107;DHT22;5607;48.302;14.294;2023-01-16T01:56:07;4.80;38.60
11107;DHT22;5607;48.302;14.294;2023-01-16T01:58:55;4.90;49.00
11107;DHT22;5607;48.302;14.294;2023-01-16T02:01:42;4.90;44.80
11107;DHT22;5607;48.302;14.294;2023-01-16T02:04:29;5.00;38.30
11107;DHT22;5607;48.302;14.294;2023-01-16T02:07:18;5.10;25.70
11107;DHT22;5607;48.302;14.294;2023-01-16T02:12:54;5.00;10.80
11107;DHT22;5607;48.302;14.294;2023-01-16T02:15:41;5.00;8.70
11107;DHT22;5607;48.302;14.294;2023-01-16T02:18:47;4.90;10.30
11107;DHT22;5607;48.302;14.294;2023-01-16T02:43:05;4.70;14.70
11107;DHT22;5607;48.302;14.294;2023-01-16T02:49:10;4.70;22.70
11107;DHT22;5607;48.302;14.294;2023-01-16T02:51:59;4.70;26.80
11107;DHT22;5607;48.302;14.294;2023-01-16T02:57:43;4.50;38.50
11107;DHT22;5607;48.302;14.294;2023-01-16T03:00:29;4.50;48.20
11107;DHT22;5607;48.302;14.294;2023-01-16T03:03:29;4.60;51.50
11107;DHT22;5607;48.302;14.294;2023-01-16T03:23:44;4.80;21.70
11107;DHT22;5607;48.302;14.294;2023-01-16T03:26:36;4.80;16.80
11107;DHT22;5607;48.302;14.294;2023-01-16T03:29:32;4.80;20.30
11107;DHT22;5607;48.302;14.294;2023-01-16T03:32:34;4.80;17.60
11107;DHT22;5607;48.302;14.294;2023-01-16T03:35:25;4.80;7.40
11107;DHT22;5607;48.302;14.294;2023-01-16T03:38:12;4.80;8.80
11107;DHT22;5607;48.302;14.294;2023-01-16T03:41:01;4.80;9.10
11107;DHT22;5607;48.302;14.294;2023-01-16T03:43:51;4.80;7.70
11107;DHT22;5607;48.302;14.294;2023-01-16T03:46:40;4.80;10.00
11107;DHT22;5607;48.302;14.294;2023-01-16T03:49:31;4.80;10.60
11107;DHT22;5607;48.302;14.294;2023-01-16T03:52:19;4.80;14.70
11107;DHT22;5607;48.302;14.294;2023-01-16T03:57:54;4.60;15.40
11107;DHT22;5607;48.302;14.294;2023-01-16T04:00:57;4.50;17.80
11107;DHT22;5607;48.302;14.294;2023-01-16T04:03:47;4.50;28.30
11107;DHT22;5607;48.302;14.294;2023-01-16T04:06:41;4.50;31.90
11107;DHT22;5607;48.302;14.294;2023-01-16T04:09:38;4.50;36.90
11107;DHT22;5607;48.302;14.294;2023-01-16T04:12:28;4.60;41.00
11107;DHT22;5607;48.302;14.294;2023-01-16T04:15:15;4.60;35.10
11107;DHT22;5607;48.302;14.294;2023-01-16T04:18:03;4.70;26.20
11107;DHT22;5607;48.302;14.294;2023-01-16T04:20:49;4.60;18.80
11107;DHT22;5607;48.302;14.294;2023-01-16T04:23:35;4.60;18.30
11107;DHT22;5607;48.302;14.294;2023-01-16T04:26:22;4.60;20.00
11107;DHT22;5607;48.302;14.294;2023-01-16T04:29:08;4.70;20.50
11107;DHT22;5607;48.302;14.294;2023-01-16T04:31:54;4.70;12.10
11107;DHT22;5607;48.302;14.294;2023-01-16T04:34:41;4.60;15.50
11107;DHT22;5607;48.302;14.294;2023-01-16T04:37:27;4.60;17.70
11107;DHT22;5607;48.302;14.294;2023-01-16T04:40:13;4.60;20.60
11107;DHT22;5607;48.302;14.294;2023-01-16T04:42:59;4.60;24.20
11107;DHT22;5607;48.302;14.294;2023-01-16T04:45:46;4.60;19.30
11107;DHT22;5607;48.302;14.294;2023-01-16T04:48:32;4.60;21.20
11107;DHT22;5607;48.302;14.294;2023-01-16T04:51:19;4.60;10.00
11107;DHT22;5607;48.302;14.294;2023-01-16T04:54:05;4.70;8.60
11107;DHT22;5607;48.302;14.294;2023-01-16T04:56:52;4.60;1.00
11107;DHT22;5607;48.302;14.294;2023-01-16T04:59:38;4.60;3.20
11107;DHT22;5607;48.302;14.294;2023-01-16T05:02:24;4.70;3.50
11107;DHT22;5607;48.302;14.294;2023-01-16T05:05:11;4.70;1.30
11107;DHT22;5607;48.302;14.294;2023-01-16T05:07:57;4.80;1.00
11107;DHT22;5607;48.302;14.294;2023-01-16T05:11:01;4.80;1.00
11107;DHT22;5607;48.302;14.294;2023-01-16T05:13:48;4.90;1.00
11107;DHT22;5607;48.302;14.294;2023-01-16T05:16:35;4.90;1.00
11107;DHT22;5607;48.302;14.294;2023-01-16T05:19:22;4.80;1.00
11107;DHT22;5607;48.302;14.294;2023-01-16T05:22:08;4.80;1.00
11107;DHT22;5607;48.302;14.294;2023-01-16T05:24:54;4.80;1.00
11107;DHT22;5607;48.302;14.294;2023-01-16T05:27:40;4.80;1.00
11107;DHT22;5607;48.302;14.294;2023-01-16T05:30:26;4.80;1.00
11107;DHT22;5607;48.302;14.294;2023-01-16T05:33:13;4.80;1.00
11107;DHT22;5607;48.302;14.294;2023-01-16T05:35:59;4.80;1.00
11107;DHT22;5607;48.302;14.294;2023-01-16T05:38:45;4.80;1.00
11107;DHT22;5607;48.302;14.294;2023-01-16T05:41:32;4.80;1.00
11107;DHT22;5607;48.302;14.294;2023-01-16T05:44:18;4.80;1.00
11107;DHT22;5607;48.302;14.294;2023-01-16T05:47:05;4.80;1.00
11107;DHT22;5607;48.302;14.294;2023-01-16T05:49:51;4.80;1.00
11107;DHT22;5607;48.302;14.294;2023-01-16T05:52:37;4.80;1.00
11107;DHT22;5607;48.302;14.294;2023-01-16T05:55:24;4.90;1.00
11107;DHT22;5607;48.302;14.294;2023-01-16T05:58:10;4.80;1.00
11107;DHT22;5607;48.302;14.294;2023-01-16T06:00:57;4.70;1.00
11107;DHT22;5607;48.302;14.294;2023-01-16T06:03:43;4.70;1.00
11107;DHT22;5607;48.302;14.294;2023-01-16T06:06:30;4.80;1.00
11107;DHT22;5607;48.302;14.294;2023-01-16T06:09:16;4.80;1.00
11107;DHT22;5607;48.302;14.294;2023-01-16T06:12:02;4.80;1.00
11107;DHT22;5607;48.302;14.294;2023-01-16T06:14:49;4.80;1.00
11107;DHT22;5607;48.302;14.294;2023-01-16T06:17:35;4.80;1.00
11107;DHT22;5607;48.302;14.294;2023-01-16T06:20:21;4.70;1.00
11107;DHT22;5607;48.302;14.294;2023-01-16T06:23:07;4.70;1.00
11107;DHT22;5607;48.302;14.294;2023-01-16T06:25:54;4.70;1.00
11107;DHT22;5607;48.302;14.294;2023-01-16T06:28:41;4.70;1.00
11107;DHT22;5607;48.302;14.294;2023-01-16T06:31:27;4.70;1.00
11107;DHT22;5607;48.302;14.294;2023-01-16T06:34:14;4.70;1.00
11107;DHT22;5607;48.302;14.294;2023-01-16T06:37:00;4.60;1.00
11107;DHT22;5607;48.302;14.294;2023-01-16T06:39:46;4.60;1.00
11107;DHT22;5607;48.302;14.294;2023-01-16T06:42:33;4.60;1.00
11107;DHT22;5607;48.302;14.294;2023-01-16T06:45:19;4.60;1.00
11107;DHT22;5607;48.302;14.294;2023-01-16T06:48:07;4.60;1.00
11107;DHT22;5607;48.302;14.294;2023-01-16T06:50:54;4.70;1.00
11107;DHT22;5607;48.302;14.294;2023-01-16T06:53:40;4.60;1.00
11107;DHT22;5607;48.302;14.294;2023-01-16T06:56:26;4.60;1.00
11107;DHT22;5607;48.302;14.294;2023-01-16T06:59:12;4.60;1.00
11107;DHT22;5607;48.302;14.294;2023-01-16T07:01:59;4.60;1.00
11107;DHT22;5607;48.302;14.294;2023-01-16T07:04:45;4.60;1.00
11107;DHT22;5607;48.302;14.294;2023-01-16T07:07:33;4.60;1.00
11107;DHT22;5607;48.302;14.294;2023-01-16T07:10:20;4.60;1.00
11107;DHT22;5607;48.302;14.294;2023-01-16T07:13:07;4.70;1.00
11107;DHT22;5607;48.302;14.294;2023-01-16T07:15:56;4.70;1.00
11107;DHT22;5607;48.302;14.294;2023-01-16T07:22:25;4.80;1.00
11107;DHT22;5607;48.302;14.294;2023-01-16T07:25:21;4.80;1.00
11107;DHT22;5607;48.302;14.294;2023-01-16T07:28:11;4.70;1.00
11107;DHT22;5607;48.302;14.294;2023-01-16T07:30:57;4.70;1.00
11107;DHT22;5607;48.302;14.294;2023-01-16T07:33:43;4.70;1.00
11107;DHT22;5607;48.302;14.294;2023-01-16T07:36:30;4.60;1.00
11107;DHT22;5607;48.302;14.294;2023-01-16T07:39:16;4.60;1.00
11107;DHT22;5607;48.302;14.294;2023-01-16T07:42:03;4.50;1.00
11107;DHT22;5607;48.302;14.294;2023-01-16T07:44:49;4.50;1.00
11107;DHT22;5607;48.302;14.294;2023-01-16T07:47:36;4.40;1.00
11107;DHT22;5607;48.302;14.294;2023-01-16T07:50:22;4.40;1.00
11107;DHT22;5607;48.302;14.294;2023-01-16T07:53:08;4.40;1.00
11107;DHT22;5607;48.302;14.294;2023-01-16T07:55:55;4.30;1.00
11107;DHT22;5607;48.302;14.294;2023-01-16T07:58:42;4.30;1.00
11107;DHT22;5607;48.302;14.294;2023-01-16T08:01:29;4.30;1.00
11107;DHT22;5607;48.302;14.294;2023-01-16T08:04:15;4.30;1.00
11107;DHT22;5607;48.302;14.294;2023-01-16T08:07:01;4.40;1.00
11107;DHT22;5607;48.302;14.294;2023-01-16T08:09:47;4.50;1.00
11107;DHT22;5607;48.302;14.294;2023-01-16T08:12:34;4.50;1.00
11107;DHT22;5607;48.302;14.294;2023-01-16T08:15:20;4.60;1.00
11107;DHT22;5607;48.302;14.294;2023-01-16T08:18:06;4.60;1.00
11107;DHT22;5607;48.302;14.294;2023-01-16T08:20:52;4.70;1.00
11107;DHT22;5607;48.302;14.294;2023-01-16T08:23:39;4.70;1.00
11107;DHT22;5607;48.302;14.294;2023-01-16T08:26:26;4.80;1.00
11107;DHT22;5607;48.302;14.294;2023-01-16T08:29:12;4.80;1.00
11107;DHT22;5607;48.302;14.294;2023-01-16T08:31:58;4.90;1.00
11107;DHT22;5607;48.302;14.294;2023-01-16T08:34:44;5.00;1.00
11107;DHT22;5607;48.302;14.294;2023-01-16T08:37:31;5.00;1.00
11107;DHT22;5607;48.302;14.294;2023-01-16T08:40:18;5.10;1.00
11107;DHT22;5607;48.302;14.294;2023-01-16T08:43:04;5.20;1.00
11107;DHT22;5607;48.302;14.294;2023-01-16T08:46:30;5.30;1.00
11107;DHT22;5607;48.302;14.294;2023-01-16T08:49:34;5.50;1.00
11107;DHT22;5607;48.302;14.294;2023-01-16T08:52:39;5.60;1.00
11107;DHT22;5607;48.302;14.294;2023-01-16T08:55:26;5.80;1.00
11107;DHT22;5607;48.302;14.294;2023-01-16T08:58:13;5.90;1.00
11107;DHT22;5607;48.302;14.294;2023-01-16T09:01:01;6.00;1.00
11107;DHT22;5607;48.302;14.294;2023-01-16T09:03:47;6.30;1.00
11107;DHT22;5607;48.302;14.294;2023-01-16T09:06:34;6.30;1.00
11107;DHT22;5607;48.302;14.294;2023-01-16T09:09:22;6.40;1.00
11107;DHT22;5607;48.302;14.294;2023-01-16T09:12:11;6.50;1.00
11107;DHT22;5607;48.302;14.294;2023-01-16T09:15:18;6.70;99.90
11107;DHT22;5607;48.302;14.294;2023-01-16T09:18:04;6.90;99.90
11107;DHT22;5607;48.302;14.294;2023-01-16T09:20:52;6.80;99.90
11107;DHT22;5607;48.302;14.294;2023-01-16T09:23:38;6.90;99.90
11107;DHT22;5607;48.302;14.294;2023-01-16T09:26:24;6.80;99.90
11107;DHT22;5607;48.302;14.294;2023-01-16T09:29:11;6.80;99.90
11107;DHT22;5607;48.302;14.294;2023-01-16T09:31:57;6.80;99.90
11107;DHT22;5607;48.302;14.294;2023-01-16T09:34:45;6.90;99.90
11107;DHT22;5607;48.302;14.294;2023-01-16T09:37:31;6.90;99.90
11107;DHT22;5607;48.302;14.294;2023-01-16T09:40:19;7.00;99.90
11107;DHT22;5607;48.302;14.294;2023-01-16T09:46:12;6.90;99.90
11107;DHT22;5607;48.302;14.294;2023-01-16T09:49:00;6.90;99.90
11107;DHT22;5607;48.302;14.294;2023-01-16T09:51:49;6.90;99.90
11107;DHT22;5607;48.302;14.294;2023-01-16T09:54:56;6.90;99.90
11107;DHT22;5607;48.302;14.294;2023-01-16T09:58:03;6.90;99.90
11107;DHT22;5607;48.302;14.294;2023-01-16T10:01:16;6.90;99.90
11107;DHT22;5607;48.302;14.294;2023-01-16T10:04:23;6.90;99.90
11107;DHT22;5607;48.302;14.294;2023-01-16T10:22:00;7.20;99.90
11107;DHT22;5607;48.302;14.294;2023-01-16T10:24:54;7.20;99.90
11107;DHT22;5607;48.302;14.294;2023-01-16T10:31:14;7.30;99.90
11107;DHT22;5607;48.302;14.294;2023-01-16T10:34:08;7.40;99.90
11107;DHT22;5607;48.302;14.294;2023-01-16T10:36:57;7.50;99.90
11107;DHT22;5607;48.302;14.294;2023-01-16T10:39:44;7.50;99.90
11107;DHT22;5607;48.302;14.294;2023-01-16T10:42:31;7.60;99.90
11107;DHT22;5607;48.302;14.294;2023-01-16T10:45:45;7.70;99.90
11107;DHT22;5607;48.302;14.294;2023-01-16T10:48:51;7.70;99.90
11107;DHT22;5607;48.302;14.294;2023-01-16T10:51:57;7.80;99.90
11107;DHT22;5607;48.302;14.294;2023-01-16T10:54:44;7.80;99.90
11107;DHT22;5607;48.302;14.294;2023-01-16T10:57:30;7.80;99.90
11107;DHT22;5607;48.302;14.294;2023-01-16T11:00:18;7.80;99.90
11107;DHT22;5607;48.302;14.294;2023-01-16T11:03:14;8.00;99.90
11107;DHT22;5607;48.302;14.294;2023-01-16T11:09:14;8.20;99.90
11107;DHT22;5607;48.302;14.294;2023-01-16T11:12:02;8.40;99.90
11107;DHT22;5607;48.302;14.294;2023-01-16T11:15:09;8.30;99.90
11107;DHT22;5607;48.302;14.294;2023-01-16T11:18:21;8.40;99.90
11107;DHT22;5607;48.302;14.294;2023-01-16T11:21:24;8.30;99.90
11107;DHT22;5607;48.302;14.294;2023-01-16T11:24:14;8.40;99.90
11107;DHT22;5607;48.302;14.294;2023-01-16T11:27:03;8.40;99.90
11107;DHT22;5607;48.302;14.294;2023-01-16T11:39:46;8.40;99.90
11107;DHT22;5607;48.302;14.294;2023-01-16T11:42:35;8.50;99.90
11107;DHT22;5607;48.302;14.294;2023-01-16T11:45:44;8.50;99.90
11107;DHT22;5607;48.302;14.294;2023-01-16T11:48:53;8.50;99.90
11107;DHT22;5607;48.302;14.294;2023-01-16T11:51:39;8.50;99.90
11107;DHT22;5607;48.302;14.294;2023-01-16T11:54:26;8.60;99.90
11107;DHT22;5607;48.302;14.294;2023-01-16T12:00:08;8.80;99.90
11107;DHT22;5607;48.302;14.294;2023-01-16T12:05:48;8.80;99.90
11107;DHT22;5607;48.302;14.294;2023-01-16T12:14:36;8.90;99.90
11107;DHT22;5607;48.302;14.294;2023-01-16T12:17:47;9.00;99.90
11107;DHT22;5607;48.302;14.294;2023-01-16T12:20:39;9.00;99.90
11107;DHT22;5607;48.302;14.294;2023-01-16T12:26:35;9.00;99.90
11107;DHT22;5607;48.302;14.294;2023-01-16T12:29:26;8.90;99.90
11107;DHT22;5607;48.302;14.294;2023-01-16T12:32:19;8.90;99.90
11107;DHT22;5607;48.302;14.294;2023-01-16T12:47:20;9.00;99.90
11107;DHT22;5607;48.302;14.294;2023-01-16T12:50:32;9.00;99.90
11107;DHT22;5607;48.302;14.294;2023-01-16T12:59:30;8.90;99.90
11107;DHT22;5607;48.302;14.294;2023-01-16T13:02:24;8.90;99.90
11107;DHT22;5607;48.302;14.294;2023-01-16T13:05:17;8.90;99.90
11107;DHT22;5607;48.302;14.294;2023-01-16T13:08:06;8.80;99.90
11107;DHT22;5607;48.302;14.294;2023-01-16T13:10:56;8.80;99.90
11107;DHT22;5607;48.302;14.294;2023-01-16T13:14:05;8.80;99.90
11107;DHT22;5607;48.302;14.294;2023-01-16T13:16:57;8.80;99.90
11107;DHT22;5607;48.302;14.294;2023-01-16T13:19:45;8.70;99.90
11107;DHT22;5607;48.302;14.294;2023-01-16T13:22:38;8.80;99.90
11107;DHT22;5607;48.302;14.294;2023-01-16T13:25:30;8.80;99.90
11107;DHT22;5607;48.302;14.294;2023-01-16T13:37:17;8.80;99.90
11107;DHT22;5607;48.302;14.294;2023-01-16T13:40:08;8.70;99.90
11107;DHT22;5607;48.302;14.294;2023-01-16T13:43:03;8.80;99.90
11107;DHT22;5607;48.302;14.294;2023-01-16T13:46:09;8.70;99.90
11107;DHT22;5607;48.302;14.294;2023-01-16T13:48:57;8.60;99.90
11107;DHT22;5607;48.302;14.294;2023-01-16T13:51:45;8.60;99.90
11107;DHT22;5607;48.302;14.294;2023-01-16T13:54:35;8.50;99.90
11107;DHT22;5607;48.302;14.294;2023-01-16T13:57:22;8.50;99.90
11107;DHT22;5607;48.302;14.294;2023-01-16T14:00:10;8.40;99.90
11107;DHT22;5607;48.302;14.294;2023-01-16T14:20:50;8.30;99.90
11107;DHT22;5607;48.302;14.294;2023-01-16T14:23:36;8.20;99.90
11107;DHT22;5607;48.302;14.294;2023-01-16T14:29:54;8.10;99.90
11107;DHT22;5607;48.302;14.294;2023-01-16T14:32:52;8.10;99.90
11107;DHT22;5607;48.302;14.294;2023-01-16T14:35:44;8.10;99.90
11107;DHT22;5607;48.302;14.294;2023-01-16T14:38:33;8.10;99.90
11107;DHT22;5607;48.302;14.294;2023-01-16T14:41:23;8.10;99.90
11107;DHT22;5607;48.302;14.294;2023-01-16T14:44:30;8.10;99.90
11107;DHT22;5607;48.302;14.294;2023-01-16T14:47:35;8.00;99.90
11107;DHT22;5607;48.302;14.294;2023-01-16T14:50:55;8.00;99.90
11107;DHT22;5607;48.302;14.294;2023-01-16T14:57:09;8.00;99.90
11107;DHT22;5607;48.302;14.294;2023-01-16T14:59:59;7.90;99.90
11107;DHT22;5607;48.302;14.294;2023-01-16T15:03:02;7.80;99.90
11107;DHT22;5607;48.302;14.294;2023-01-16T15:05:50;7.80;99.90
11107;DHT22;5607;48.302;14.294;2023-01-16T15:08:39;7.70;99.90
11107;DHT22;5607;48.302;14.294;2023-01-16T15:11:28;7.70;99.90
11107;DHT22;5607;48.302;14.294;2023-01-16T15:14:20;7.70;99.90
11107;DHT22;5607;48.302;14.294;2023-01-16T15:17:21;7.60;99.90
11107;DHT22;5607;48.302;14.294;2023-01-16T15:20:27;7.60;99.90
11107;DHT22;5607;48.302;14.294;2023-01-16T15:23:33;7.60;99.90
11107;DHT22;5607;48.302;14.294;2023-01-16T15:26:28;7.50;99.90
11107;DHT22;5607;48.302;14.294;2023-01-16T15:32:22;7.50;99.90
11107;DHT22;5607;48.302;14.294;2023-01-16T15:35:18;7.50;99.90
11107;DHT22;5607;48.302;14.294;2023-01-16T15:38:08;7.50;99.90
11107;DHT22;5607;48.302;14.294;2023-01-16T15:40:55;7.50;99.90
11107;DHT22;5607;48.302;14.294;2023-01-16T15:43:42;7.50;99.90
11107;DHT22;5607;48.302;14.294;2023-01-16T15:46:51;7.50;99.90
11107;DHT22;5607;48.302;14.294;2023-01-16T15:52:34;7.40;99.90
11107;DHT22;5607;48.302;14.294;2023-01-16T15:55:38;7.40;99.90
11107;DHT22;5607;48.302;14.294;2023-01-16T15:58:24;7.30;99.90
11107;DHT22;5607;48.302;14.294;2023-01-16T16:01:11;7.30;99.90
11107;DHT22;5607;48.302;14.294;2023-01-16T16:03:58;7.30;99.90
11107;DHT22;5607;48.302;14.294;2023-01-16T16:06:45;7.20;99.90
11107;DHT22;5607;48.302;14.294;2023-01-16T16:09:32;7.20;99.90
11107;DHT22;5607;48.302;14.294;2023-01-16T16:12:19;7.10;99.90
11107;DHT22;5607;48.302;14.294;2023-01-16T16:15:24;7.10;99.90
11107;DHT22;5607;48.302;14.294;2023-01-16T16:18:29;7.10;99.90
11107;DHT22;5607;48.302;14.294;2023-01-16T16:21:15;7.00;99.90
11107;DHT22;5607;48.302;14.294;2023-01-16T16:24:05;7.00;99.90
11107;DHT22;5607;48.302;14.294;2023-01-16T16:26:54;7.00;99.90
11107;DHT22;5607;48.302;14.294;2023-01-16T16:29:40;7.00;99.90
11107;DHT22;5607;48.302;14.294;2023-01-16T16:32:27;7.00;99.90
11107;DHT22;5607;48.302;14.294;2023-01-16T16:35:34;7.00;99.90
11107;DHT22;5607;48.302;14.294;2023-01-16T16:43:56;7.00;99.90
11107;DHT22;5607;48.302;14.294;2023-01-16T16:46:46;7.00;99.90
11107;DHT22;5607;48.302;14.294;2023-01-16T16:49:36;7.00;99.90
11107;DHT22;5607;48.302;14.294;2023-01-16T16:55:25;7.00;99.90
11107;DHT22;5607;48.302;14.294;2023-01-16T16:58:13;7.00;99.90
11107;DHT22;5607;48.302;14.294;2023-01-16T17:01:00;7.00;99.90
11107;DHT22;5607;48.302;14.294;2023-01-16T17:03:48;6.90;99.90
11107;DHT22;5607;48.302;14.294;2023-01-16T17:06:35;6.80;99.90
11107;DHT22;5607;48.302;14.294;2023-01-16T17:09:21;6.80;99.90
11107;DHT22;5607;48.302;14.294;2023-01-16T17:15:01;6.90;99.90
11107;DHT22;5607;48.302;14.294;2023-01-16T17:17:47;6.70;99.90
11107;DHT22;5607;48.302;14.294;2023-01-16T17:20:35;6.70;99.90
11107;DHT22;5607;48.302;14.294;2023-01-16T17:23:22;6.60;99.90
11107;DHT22;5607;48.302;14.294;2023-01-16T17:26:08;6.50;99.90
11107;DHT22;5607;48.302;14.294;2023-01-16T17:28:57;6.50;99.90
11107;DHT22;5607;48.302;14.294;2023-01-16T17:31:43;6.60;99.90
11107;DHT22;5607;48.302;14.294;2023-01-16T17:34:30;6.60;99.90
11107;DHT22;5607;48.302;14.294;2023-01-16T17:37:18;6.70;99.90
11107;DHT22;5607;48.302;14.294;2023-01-16T17:40:05;6.60;99.90
11107;DHT22;5607;48.302;14.294;2023-01-16T17:42:51;6.60;99.90
11107;DHT22;5607;48.302;14.294;2023-01-16T17:45:55;6.60;99.90
11107;DHT22;5607;48.302;14.294;2023-01-16T17:48:42;6.60;99.90
11107;DHT22;5607;48.302;14.294;2023-01-16T17:51:29;6.60;99.90
11107;DHT22;5607;48.302;14.294;2023-01-16T17:54:17;6.50;99.90
11107;DHT22;5607;48.302;14.294;2023-01-16T17:57:23;6.60;99.90
11107;DHT22;5607;48.302;14.294;2023-01-16T18:00:10;6.60;99.90
11107;DHT22;5607;48.302;14.294;2023-01-16T18:02:57;6.50;99.90
11107;DHT22;5607;48.302;14.294;2023-01-16T18:05:43;6.40;99.90
11107;DHT22;5607;48.302;14.294;2023-01-16T18:08:30;6.40;99.90
11107;DHT22;5607;48.302;14.294;2023-01-16T18:11:16;6.30;99.90
11107;DHT22;5607;48.302;14.294;2023-01-16T18:14:21;6.30;99.90
11107;DHT22;5607;48.302;14.294;2023-01-16T18:17:26;6.30;99.90
11107;DHT22;5607;48.302;14.294;2023-01-16T18:20:15;6.30;99.90
11107;DHT22;5607;48.302;14.294;2023-01-16T18:23:01;6.30;99.90
11107;DHT22;5607;48.302;14.294;2023-01-16T18:25:47;6.30;99.90
11107;DHT22;5607;48.302;14.294;2023-01-16T18:28:34;6.30;99.90
11107;DHT22;5607;48.302;14.294;2023-01-16T18:31:21;6.30;99.90
11107;DHT22;5607;48.302;14.294;2023-01-16T18:34:07;6.30;99.90
11107;DHT22;5607;48.302;14.294;2023-01-16T18:36:53;6.30;99.90
11107;DHT22;5607;48.302;14.294;2023-01-16T18:39:40;6.40;99.90
11107;DHT22;5607;48.302;14.294;2023-01-16T18:42:45;6.40;99.90
11107;DHT22;5607;48.302;14.294;2023-01-16T18:45:49;6.40;99.90
11107;DHT22;5607;48.302;14.294;2023-01-16T18:48:54;6.40;99.90
11107;DHT22;5607;48.302;14.294;2023-01-16T18:52:09;6.30;99.90
11107;DHT22;5607;48.302;14.294;2023-01-16T18:55:18;6.20;99.90
11107;DHT22;5607;48.302;14.294;2023-01-16T18:58:23;6.10;99.90
11107;DHT22;5607;48.302;14.294;2023-01-16T19:01:27;6.10;99.90
11107;DHT22;5607;48.302;14.294;2023-01-16T19:04:32;6.00;99.90
11107;DHT22;5607;48.302;14.294;2023-01-16T19:07:20;6.00;99.90
11107;DHT22;5607;48.302;14.294;2023-01-16T19:10:08;6.00;99.90
11107;DHT22;5607;48.302;14.294;2023-01-16T19:12:57;6.00;99.90
11107;DHT22;5607;48.302;14.294;2023-01-16T19:15:44;6.00;99.90
11107;DHT22;5607;48.302;14.294;2023-01-16T19:18:49;6.00;99.90
11107;DHT22;5607;48.302;14.294;2023-01-16T19:21:35;5.90;99.90
11107;DHT22;5607;48.302;14.294;2023-01-16T19:24:23;5.90;99.90
11107;DHT22;5607;48.302;14.294;2023-01-16T19:27:13;5.90;99.90
11107;DHT22;5607;48.302;14.294;2023-01-16T19:29:59;5.90;99.90
11107;DHT22;5607;48.302;14.294;2023-01-16T19:32:45;5.80;99.90
11107;DHT22;5607;48.302;14.294;2023-01-16T19:35:32;5.80;99.90
11107;DHT22;5607;48.302;14.294;2023-01-16T19:38:18;5.70;99.90
11107;DHT22;5607;48.302;14.294;2023-01-16T19:41:05;5.70;99.90
11107;DHT22;5607;48.302;14.294;2023-01-16T19:44:12;5.80;99.90
11107;DHT22;5607;48.302;14.294;2023-01-16T19:47:16;5.90;99.90
11107;DHT22;5607;48.302;14.294;2023-01-16T19:50:03;6.00;99.90
11107;DHT22;5607;48.302;14.294;2023-01-16T19:52:49;6.10;99.90
11107;DHT22;5607;48.302;14.294;2023-01-16T19:55:35;6.00;99.90
11107;DHT22;5607;48.302;14.294;2023-01-16T19:58:22;6.10;99.90
11107;DHT22;5607;48.302;14.294;2023-01-16T20:01:09;6.10;99.90
11107;DHT22;5607;48.302;14.294;2023-01-16T20:03:56;6.10;99.90
11107;DHT22;5607;48.302;14.294;2023-01-16T20:06:42;6.00;99.90
11107;DHT22;5607;48.302;14.294;2023-01-16T20:09:28;5.90;99.90
11107;DHT22;5607;48.302;14.294;2023-01-16T20:12:15;5.90;99.90
11107;DHT22;5607;48.302;14.294;2023-01-16T20:15:10;5.80;99.90
11107;DHT22;5607;48.302;14.294;2023-01-16T20:18:00;5.80;99.90
11107;DHT22;5607;48.302;14.294;2023-01-16T20:20:46;5.80;99.90
11107;DHT22;5607;48.302;14.294;2023-01-16T20:23:35;5.80;99.90
11107;DHT22;5607;48.302;14.294;2023-01-16T20:26:21;5.80;99.90
11107;DHT22;5607;48.302;14.294;2023-01-16T20:29:08;5.90;99.90
11107;DHT22;5607;48.302;14.294;2023-01-16T20:31:54;5.90;99.90
11107;DHT22;5607;48.302;14.294;2023-01-16T20:34:40;5.90;99.90
11107;DHT22;5607;48.302;14.294;2023-01-16T20:37:27;5.80;99.90
11107;DHT22;5607;48.302;14.294;2023-01-16T20:40:14;5.70;99.90
11107;DHT22;5607;48.302;14.294;2023-01-16T20:43:00;5.60;99.90
11107;DHT22;5607;48.302;14.294;2023-01-16T20:46:05;5.60;99.90
11107;DHT22;5607;48.302;14.294;2023-01-16T20:48:52;5.50;99.90
11107;DHT22;5607;48.302;14.294;2023-01-16T20:51:39;5.50;99.90
11107;DHT22;5607;48.302;14.294;2023-01-16T20:54:25;5.40;99.90
11107;DHT22;5607;48.302;14.294;2023-01-16T20:57:11;5.40;99.90
11107;DHT22;5607;48.302;14.294;2023-01-16T20:59:58;5.40;99.90
11107;DHT22;5607;48.302;14.294;2023-01-16T21:02:44;5.30;99.90
11107;DHT22;5607;48.302;14.294;2023-01-16T21:05:31;5.30;99.90
11107;DHT22;5607;48.302;14.294;2023-01-16T21:08:18;5.20;99.90
11107;DHT22;5607;48.302;14.294;2023-01-16T21:11:04;5.30;99.90